sensor_id;sensor_type;location;lat;lon;timestamp;temperature;humidity
7574;DHT22;3828;48.922;9.116;2023-01-31T00:01:47;3.70;99.90
7574;DHT22;3828;48.922;9.116;2023-01-31T00:04:15;3.70;99.90
7574;DHT22;3828;48.922;9.116;2023-01-31T00:06:43;3.70;99.90
7574;DHT22;3828;48.922;9.116;2023-01-31T00:09:18;3.70;99.90
7574;DHT22;3828;48.922;9.116;2023-01-31T00:11:48;3.70;99.90
7574;DHT22;3828;48.922;9.116;2023-01-31T00:14:18;3.80;99.90
7574;DHT22;3828;48.922;9.116;2023-01-31T00:16:46;3.70;99.90
7574;DHT22;3828;48.922;9.116;2023-01-31T00:19:12;3.70;99.90
7574;DHT22;3828;48.922;9.116;2023-01-31T00:21:41;3.80;99.90
7574;DHT22;3828;48.922;9.116;2023-01-31T00:24:11;3.80;99.90
7574;DHT22;3828;48.922;9.116;2023-01-31T00:26:38;3.80;99.90
7574;DHT22;3828;48.922;9.116;2023-01-31T00:29:05;3.80;99.90
7574;DHT22;3828;48.922;9.116;2023-01-31T00:31:33;3.80;99.90
7574;DHT22;3828;48.922;9.116;2023-01-31T00:34:00;3.80;99.90
7574;DHT22;3828;48.922;9.116;2023-01-31T00:36:28;3.80;99.90
7574;DHT22;3828;48.922;9.116;2023-01-31T00:38:58;3.80;99.90
7574;DHT22;3828;48.922;9.116;2023-01-31T00:41:27;3.80;99.90
7574;DHT22;3828;48.922;9.116;2023-01-31T00:43:55;3.80;99.90
7574;DHT22;3828;48.922;9.116;2023-01-31T00:46:22;3.80;99.90
7574;DHT22;3828;48.922;9.116;2023-01-31T00:48:49;3.80;99.90
7574;DHT22;3828;48.922;9.116;2023-01-31T00:51:17;3.80;99.90
7574;DHT22;3828;48.922;9.116;2023-01-31T00:53:44;6.70;99.90
7574;DHT22;3828;48.922;9.116;2023-01-31T00:56:14;3.70;99.90
7574;DHT22;3828;48.922;9.116;2023-01-31T00:58:41;3.70;99.90
7574;DHT22;3828;48.922;9.116;2023-01-31T01:01:10;3.70;99.90
7574;DHT22;3828;48.922;9.116;2023-01-31T01:03:38;3.70;99.90
7574;DHT22;3828;48.922;9.116;2023-01-31T01:06:06;3.60;99.90
7574;DHT22;3828;48.922;9.116;2023-01-31T01:08:34;3.60;99.90
7574;DHT22;3828;48.922;9.116;2023-01-31T01:11:05;3.60;99.90
7574;DHT22;3828;48.922;9.116;2023-01-31T01:13:34;3.50;99.90
7574;DHT22;3828;48.922;9.116;2023-01-31T01:16:04;3.60;99.90
7574;DHT22;3828;48.922;9.116;2023-01-31T01:18:31;3.60;99.90
7574;DHT22;3828;48.922;9.116;2023-01-31T01:21:05;3.60;99.90
7574;DHT22;3828;48.922;9.116;2023-01-31T01:23:31;3.50;99.90
7574;DHT22;3828;48.922;9.116;2023-01-31T01:25:58;3.50;99.90
7574;DHT22;3828;48.922;9.116;2023-01-31T01:28:25;3.40;99.90
7574;DHT22;3828;48.922;9.116;2023-01-31T01:30:53;3.30;99.90
7574;DHT22;3828;48.922;9.116;2023-01-31T01:33:20;3.20;99.90
7574;DHT22;3828;48.922;9.116;2023-01-31T01:35:47;3.40;99.90
7574;DHT22;3828;48.922;9.116;2023-01-31T01:38:14;3.10;99.90
7574;DHT22;3828;48.922;9.116;2023-01-31T01:40:45;3.90;99.90
7574;DHT22;3828;48.922;9.116;2023-01-31T01:43:12;3.10;99.90
7574;DHT22;3828;48.922;9.116;2023-01-31T01:45:39;3.10;99.90
7574;DHT22;3828;48.922;9.116;2023-01-31T01:48:11;5.70;99.90
7574;DHT22;3828;48.922;9.116;2023-01-31T01:50:43;3.10;99.90
7574;DHT22;3828;48.922;9.116;2023-01-31T01:53:15;3.10;99.90
7574;DHT22;3828;48.922;9.116;2023-01-31T01:55:46;3.10;99.90
7574;DHT22;3828;48.922;9.116;2023-01-31T01:58:21;4.80;99.90
7574;DHT22;3828;48.922;9.116;2023-01-31T02:00:49;6.60;99.90
7574;DHT22;3828;48.922;9.116;2023-01-31T02:03:17;7.30;99.90
7574;DHT22;3828;48.922;9.116;2023-01-31T02:05:47;3.30;99.90
7574;DHT22;3828;48.922;9.116;2023-01-31T02:08:16;3.30;99.90
7574;DHT22;3828;48.922;9.116;2023-01-31T02:10:48;3.30;99.90
7574;DHT22;3828;48.922;9.116;2023-01-31T02:13:16;3.30;99.90
7574;DHT22;3828;48.922;9.116;2023-01-31T02:15:44;3.30;99.90
7574;DHT22;3828;48.922;9.116;2023-01-31T02:18:11;3.30;99.90
7574;DHT22;3828;48.922;9.116;2023-01-31T02:21:12;3.70;99.90
7574;DHT22;3828;48.922;9.116;2023-01-31T02:24:12;3.20;99.90
7574;DHT22;3828;48.922;9.116;2023-01-31T02:27:17;3.30;99.90
7574;DHT22;3828;48.922;9.116;2023-01-31T02:30:16;3.30;99.90
7574;DHT22;3828;48.922;9.116;2023-01-31T02:32:58;3.20;99.90
7574;DHT22;3828;48.922;9.116;2023-01-31T02:35:37;3.20;99.90
7574;DHT22;3828;48.922;9.116;2023-01-31T02:38:18;3.30;99.90
7574;DHT22;3828;48.922;9.116;2023-01-31T02:40:51;3.20;99.90
7574;DHT22;3828;48.922;9.116;2023-01-31T02:43:22;3.30;99.90
7574;DHT22;3828;48.922;9.116;2023-01-31T02:45:59;3.30;99.90
7574;DHT22;3828;48.922;9.116;2023-01-31T02:48:33;3.30;99.90
7574;DHT22;3828;48.922;9.116;2023-01-31T02:51:09;3.30;99.90
7574;DHT22;3828;48.922;9.116;2023-01-31T02:53:43;3.30;99.90
7574;DHT22;3828;48.922;9.116;2023-01-31T02:56:12;3.30;99.90
7574;DHT22;3828;48.922;9.116;2023-01-31T02:58:41;3.30;99.90
7574;DHT22;3828;48.922;9.116;2023-01-31T03:01:15;3.30;99.90
7574;DHT22;3828;48.922;9.116;2023-01-31T03:03:45;3.30;99.90
7574;DHT22;3828;48.922;9.116;2023-01-31T03:06:40;3.30;99.90
7574;DHT22;3828;48.922;9.116;2023-01-31T03:09:23;3.40;99.90
7574;DHT22;3828;48.922;9.116;2023-01-31T03:12:08;3.40;99.90
7574;DHT22;3828;48.922;9.116;2023-01-31T03:14:43;3.30;99.90
7574;DHT22;3828;48.922;9.116;2023-01-31T03:17:17;3.30;99.90
7574;DHT22;3828;48.922;9.116;2023-01-31T03:20:05;4.10;99.90
7574;DHT22;3828;48.922;9.116;2023-01-31T03:22:36;3.30;99.90
7574;DHT22;3828;48.922;9.116;2023-01-31T03:25:06;3.30;99.90
7574;DHT22;3828;48.922;9.116;2023-01-31T03:27:35;3.30;99.90
7574;DHT22;3828;48.922;9.116;2023-01-31T03:30:07;3.30;99.90
7574;DHT22;3828;48.922;9.116;2023-01-31T03:32:43;3.20;99.90
7574;DHT22;3828;48.922;9.116;2023-01-31T03:35:12;3.80;99.90
7574;DHT22;3828;48.922;9.116;2023-01-31T03:37:43;3.20;99.90
7574;DHT22;3828;48.922;9.116;2023-01-31T03:40:16;5.40;99.90
7574;DHT22;3828;48.922;9.116;2023-01-31T03:42:56;3.20;99.90
7574;DHT22;3828;48.922;9.116;2023-01-31T03:45:32;3.20;99.90
7574;DHT22;3828;48.922;9.116;2023-01-31T03:48:08;4.80;99.90
7574;DHT22;3828;48.922;9.116;2023-01-31T03:50:42;3.30;99.90
7574;DHT22;3828;48.922;9.116;2023-01-31T03:53:12;3.20;99.90
7574;DHT22;3828;48.922;9.116;2023-01-31T03:55:43;3.10;99.90
7574;DHT22;3828;48.922;9.116;2023-01-31T03:58:12;5.80;99.90
7574;DHT22;3828;48.922;9.116;2023-01-31T04:00:42;3.10;99.90
7574;DHT22;3828;48.922;9.116;2023-01-31T04:03:15;3.10;99.90
7574;DHT22;3828;48.922;9.116;2023-01-31T04:05:45;3.00;99.90
7574;DHT22;3828;48.922;9.116;2023-01-31T04:08:13;3.00;99.90
7574;DHT22;3828;48.922;9.116;2023-01-31T04:10:40;3.00;99.90
7574;DHT22;3828;48.922;9.116;2023-01-31T04:13:08;3.00;99.90
7574;DHT22;3828;48.922;9.116;2023-01-31T04:15:36;2.90;99.90
7574;DHT22;3828;48.922;9.116;2023-01-31T04:18:03;2.90;99.90
7574;DHT22;3828;48.922;9.116;2023-01-31T04:20:30;2.80;99.90
7574;DHT22;3828;48.922;9.116;2023-01-31T04:22:58;4.10;99.90
7574;DHT22;3828;48.922;9.116;2023-01-31T04:25:24;2.70;99.90
7574;DHT22;3828;48.922;9.116;2023-01-31T04:27:51;2.70;99.90
7574;DHT22;3828;48.922;9.116;2023-01-31T04:30:18;2.70;99.90
7574;DHT22;3828;48.922;9.116;2023-01-31T04:32:45;2.70;99.90
7574;DHT22;3828;48.922;9.116;2023-01-31T04:35:12;2.60;99.90
7574;DHT22;3828;48.922;9.116;2023-01-31T04:37:40;2.60;99.90
7574;DHT22;3828;48.922;9.116;2023-01-31T04:40:09;2.50;99.90
7574;DHT22;3828;48.922;9.116;2023-01-31T04:42:38;2.50;99.90
7574;DHT22;3828;48.922;9.116;2023-01-31T04:45:17;2.50;99.90
7574;DHT22;3828;48.922;9.116;2023-01-31T04:47:45;2.40;99.90
7574;DHT22;3828;48.922;9.116;2023-01-31T04:50:12;5.30;99.90
7574;DHT22;3828;48.922;9.116;2023-01-31T04:52:39;2.50;99.90
7574;DHT22;3828;48.922;9.116;2023-01-31T04:55:06;6.40;99.90
7574;DHT22;3828;48.922;9.116;2023-01-31T04:57:35;2.60;99.90
7574;DHT22;3828;48.922;9.116;2023-01-31T05:00:02;2.60;99.90
7574;DHT22;3828;48.922;9.116;2023-01-31T05:02:30;2.60;99.90
7574;DHT22;3828;48.922;9.116;2023-01-31T05:04:59;5.50;99.90
7574;DHT22;3828;48.922;9.116;2023-01-31T05:07:27;2.60;99.90
7574;DHT22;3828;48.922;9.116;2023-01-31T05:09:54;5.30;99.90
7574;DHT22;3828;48.922;9.116;2023-01-31T05:12:21;5.70;99.90
7574;DHT22;3828;48.922;9.116;2023-01-31T05:14:49;2.70;99.90
7574;DHT22;3828;48.922;9.116;2023-01-31T05:17:17;2.70;99.90
7574;DHT22;3828;48.922;9.116;2023-01-31T05:19:50;2.70;99.90
7574;DHT22;3828;48.922;9.116;2023-01-31T05:22:17;5.70;99.90
7574;DHT22;3828;48.922;9.116;2023-01-31T05:24:47;2.60;99.90
7574;DHT22;3828;48.922;9.116;2023-01-31T05:27:14;2.60;99.90
7574;DHT22;3828;48.922;9.116;2023-01-31T05:29:41;2.60;99.90
7574;DHT22;3828;48.922;9.116;2023-01-31T05:32:10;2.60;99.90
7574;DHT22;3828;48.922;9.116;2023-01-31T05:34:37;2.60;99.90
7574;DHT22;3828;48.922;9.116;2023-01-31T05:37:04;2.50;99.90
7574;DHT22;3828;48.922;9.116;2023-01-31T05:39:31;2.80;99.90
7574;DHT22;3828;48.922;9.116;2023-01-31T05:41:58;2.50;99.90
7574;DHT22;3828;48.922;9.116;2023-01-31T05:44:25;2.50;99.90
7574;DHT22;3828;48.922;9.116;2023-01-31T05:46:51;2.50;99.90
7574;DHT22;3828;48.922;9.116;2023-01-31T05:49:20;2.50;99.90
7574;DHT22;3828;48.922;9.116;2023-01-31T05:51:46;2.50;99.90
7574;DHT22;3828;48.922;9.116;2023-01-31T05:54:13;2.40;99.90
7574;DHT22;3828;48.922;9.116;2023-01-31T05:56:40;2.40;99.90
7574;DHT22;3828;48.922;9.116;2023-01-31T05:59:07;2.50;99.90
7574;DHT22;3828;48.922;9.116;2023-01-31T06:01:34;5.60;99.90
7574;DHT22;3828;48.922;9.116;2023-01-31T06:04:01;2.40;99.90
7574;DHT22;3828;48.922;9.116;2023-01-31T06:06:29;5.80;99.90
7574;DHT22;3828;48.922;9.116;2023-01-31T06:08:56;3.20;99.90
7574;DHT22;3828;48.922;9.116;2023-01-31T06:11:22;2.30;99.90
7574;DHT22;3828;48.922;9.116;2023-01-31T06:13:52;2.30;99.90
7574;DHT22;3828;48.922;9.116;2023-01-31T06:16:23;3.60;99.90
7574;DHT22;3828;48.922;9.116;2023-01-31T06:18:50;2.20;99.90
7574;DHT22;3828;48.922;9.116;2023-01-31T06:21:16;2.30;99.90
7574;DHT22;3828;48.922;9.116;2023-01-31T06:23:44;2.20;99.90
7574;DHT22;3828;48.922;9.116;2023-01-31T06:26:12;2.20;99.90
7574;DHT22;3828;48.922;9.116;2023-01-31T06:28:39;2.20;99.90
7574;DHT22;3828;48.922;9.116;2023-01-31T06:31:07;3.80;99.90
7574;DHT22;3828;48.922;9.116;2023-01-31T06:33:34;2.10;99.90
7574;DHT22;3828;48.922;9.116;2023-01-31T06:36:01;2.10;99.90
7574;DHT22;3828;48.922;9.116;2023-01-31T06:38:28;2.00;99.90
7574;DHT22;3828;48.922;9.116;2023-01-31T06:40:58;2.60;99.90
7574;DHT22;3828;48.922;9.116;2023-01-31T06:43:25;2.00;99.90
7574;DHT22;3828;48.922;9.116;2023-01-31T06:45:52;1.90;99.90
7574;DHT22;3828;48.922;9.116;2023-01-31T06:48:19;1.70;99.90
7574;DHT22;3828;48.922;9.116;2023-01-31T06:50:46;1.80;99.90
7574;DHT22;3828;48.922;9.116;2023-01-31T06:53:13;5.60;99.90
7574;DHT22;3828;48.922;9.116;2023-01-31T06:55:39;1.70;99.90
7574;DHT22;3828;48.922;9.116;2023-01-31T06:58:07;1.60;99.90
7574;DHT22;3828;48.922;9.116;2023-01-31T07:00:34;1.50;99.90
7574;DHT22;3828;48.922;9.116;2023-01-31T07:03:01;1.40;99.90
7574;DHT22;3828;48.922;9.116;2023-01-31T07:05:28;3.60;99.90
7574;DHT22;3828;48.922;9.116;2023-01-31T07:07:55;1.40;99.90
7574;DHT22;3828;48.922;9.116;2023-01-31T07:10:21;2.50;99.90
7574;DHT22;3828;48.922;9.116;2023-01-31T07:12:48;1.40;99.90
7574;DHT22;3828;48.922;9.116;2023-01-31T07:15:16;1.50;99.90
7574;DHT22;3828;48.922;9.116;2023-01-31T07:17:43;1.50;99.90
7574;DHT22;3828;48.922;9.116;2023-01-31T07:20:11;1.50;99.90
7574;DHT22;3828;48.922;9.116;2023-01-31T07:22:38;1.50;99.90
7574;DHT22;3828;48.922;9.116;2023-01-31T07:25:05;3.80;99.90
7574;DHT22;3828;48.922;9.116;2023-01-31T07:27:32;1.30;99.90
7574;DHT22;3828;48.922;9.116;2023-01-31T07:29:59;1.20;99.90
7574;DHT22;3828;48.922;9.116;2023-01-31T07:32:29;1.30;99.90
7574;DHT22;3828;48.922;9.116;2023-01-31T07:34:56;1.30;99.90
7574;DHT22;3828;48.922;9.116;2023-01-31T07:37:23;1.40;99.90
7574;DHT22;3828;48.922;9.116;2023-01-31T07:39:49;1.50;99.90
7574;DHT22;3828;48.922;9.116;2023-01-31T07:42:16;1.50;99.90
7574;DHT22;3828;48.922;9.116;2023-01-31T07:44:43;1.50;99.90
7574;DHT22;3828;48.922;9.116;2023-01-31T07:47:10;1.50;99.90
7574;DHT22;3828;48.922;9.116;2023-01-31T07:49:38;1.40;99.90
7574;DHT22;3828;48.922;9.116;2023-01-31T07:52:05;1.40;99.90
7574;DHT22;3828;48.922;9.116;2023-01-31T07:54:32;1.40;99.90
7574;DHT22;3828;48.922;9.116;2023-01-31T07:56:59;4.70;99.90
7574;DHT22;3828;48.922;9.116;2023-01-31T07:59:26;1.40;99.90
7574;DHT22;3828;48.922;9.116;2023-01-31T08:01:53;1.30;99.90
7574;DHT22;3828;48.922;9.116;2023-01-31T08:04:41;1.30;99.90
7574;DHT22;3828;48.922;9.116;2023-01-31T08:07:07;1.40;99.90
7574;DHT22;3828;48.922;9.116;2023-01-31T08:09:35;4.50;99.90
7574;DHT22;3828;48.922;9.116;2023-01-31T08:12:04;1.60;99.90
7574;DHT22;3828;48.922;9.116;2023-01-31T08:14:32;1.80;99.90
7574;DHT22;3828;48.922;9.116;2023-01-31T08:16:59;2.10;99.90
7574;DHT22;3828;48.922;9.116;2023-01-31T08:19:25;2.80;99.90
7574;DHT22;3828;48.922;9.116;2023-01-31T08:21:53;3.40;99.90
7574;DHT22;3828;48.922;9.116;2023-01-31T08:24:20;4.10;99.90
7574;DHT22;3828;48.922;9.116;2023-01-31T08:26:47;4.70;99.90
7574;DHT22;3828;48.922;9.116;2023-01-31T08:29:14;5.30;99.90
7574;DHT22;3828;48.922;9.116;2023-01-31T08:31:41;5.20;99.90
7574;DHT22;3828;48.922;9.116;2023-01-31T08:34:07;4.90;99.90
7574;DHT22;3828;48.922;9.116;2023-01-31T08:36:35;4.80;99.90
7574;DHT22;3828;48.922;9.116;2023-01-31T08:39:03;4.60;99.90
7574;DHT22;3828;48.922;9.116;2023-01-31T08:41:32;4.30;99.90
7574;DHT22;3828;48.922;9.116;2023-01-31T08:43:59;4.20;99.90
7574;DHT22;3828;48.922;9.116;2023-01-31T08:46:30;3.90;99.90
7574;DHT22;3828;48.922;9.116;2023-01-31T08:48:58;3.60;99.90
7574;DHT22;3828;48.922;9.116;2023-01-31T08:51:26;3.50;99.90
7574;DHT22;3828;48.922;9.116;2023-01-31T08:53:53;3.50;99.90
7574;DHT22;3828;48.922;9.116;2023-01-31T08:56:21;5.90;99.90
7574;DHT22;3828;48.922;9.116;2023-01-31T08:58:51;7.30;99.90
7574;DHT22;3828;48.922;9.116;2023-01-31T09:01:19;3.50;99.90
7574;DHT22;3828;48.922;9.116;2023-01-31T09:03:47;3.60;99.90
7574;DHT22;3828;48.922;9.116;2023-01-31T09:06:16;3.50;99.90
7574;DHT22;3828;48.922;9.116;2023-01-31T09:08:43;3.60;99.90
7574;DHT22;3828;48.922;9.116;2023-01-31T09:11:10;3.70;99.90
7574;DHT22;3828;48.922;9.116;2023-01-31T09:13:43;3.90;99.90
7574;DHT22;3828;48.922;9.116;2023-01-31T09:16:11;4.10;99.90
7574;DHT22;3828;48.922;9.116;2023-01-31T09:18:39;4.20;99.90
7574;DHT22;3828;48.922;9.116;2023-01-31T09:21:10;4.30;99.90
7574;DHT22;3828;48.922;9.116;2023-01-31T09:23:39;4.30;99.90
7574;DHT22;3828;48.922;9.116;2023-01-31T09:26:07;4.40;99.90
7574;DHT22;3828;48.922;9.116;2023-01-31T09:28:34;4.50;99.90
7574;DHT22;3828;48.922;9.116;2023-01-31T09:31:10;6.90;99.90
7574;DHT22;3828;48.922;9.116;2023-01-31T09:33:37;4.60;99.90
7574;DHT22;3828;48.922;9.116;2023-01-31T09:36:07;4.60;99.90
7574;DHT22;3828;48.922;9.116;2023-01-31T09:38:34;4.70;99.90
7574;DHT22;3828;48.922;9.116;2023-01-31T09:41:03;4.70;99.90
7574;DHT22;3828;48.922;9.116;2023-01-31T09:43:34;5.60;99.90
7574;DHT22;3828;48.922;9.116;2023-01-31T09:46:05;4.60;99.90
7574;DHT22;3828;48.922;9.116;2023-01-31T09:48:37;4.60;99.90
7574;DHT22;3828;48.922;9.116;2023-01-31T09:51:09;7.50;99.90
7574;DHT22;3828;48.922;9.116;2023-01-31T09:53:38;4.60;99.90
7574;DHT22;3828;48.922;9.116;2023-01-31T09:56:22;4.60;99.90
7574;DHT22;3828;48.922;9.116;2023-01-31T09:58:55;8.10;99.90
7574;DHT22;3828;48.922;9.116;2023-01-31T10:01:27;4.70;99.90
7574;DHT22;3828;48.922;9.116;2023-01-31T10:04:08;5.30;99.90
7574;DHT22;3828;48.922;9.116;2023-01-31T10:06:46;4.80;99.90
7574;DHT22;3828;48.922;9.116;2023-01-31T10:09:19;8.30;99.90
7574;DHT22;3828;48.922;9.116;2023-01-31T10:11:52;5.00;99.90
7574;DHT22;3828;48.922;9.116;2023-01-31T10:14:27;5.10;99.90
7574;DHT22;3828;48.922;9.116;2023-01-31T10:17:01;6.70;99.90
7574;DHT22;3828;48.922;9.116;2023-01-31T10:19:39;5.30;99.90
7574;DHT22;3828;48.922;9.116;2023-01-31T10:22:08;5.60;99.90
7574;DHT22;3828;48.922;9.116;2023-01-31T10:24:39;9.10;99.90
7574;DHT22;3828;48.922;9.116;2023-01-31T10:27:13;7.50;99.90
7574;DHT22;3828;48.922;9.116;2023-01-31T10:29:44;8.10;99.90
7574;DHT22;3828;48.922;9.116;2023-01-31T10:32:18;5.60;99.90
7574;DHT22;3828;48.922;9.116;2023-01-31T10:34:51;5.60;99.90
7574;DHT22;3828;48.922;9.116;2023-01-31T10:37:28;5.50;99.90
7574;DHT22;3828;48.922;9.116;2023-01-31T10:40:01;5.50;99.90
7574;DHT22;3828;48.922;9.116;2023-01-31T10:42:30;5.30;99.90
7574;DHT22;3828;48.922;9.116;2023-01-31T10:45:01;5.30;99.90
7574;DHT22;3828;48.922;9.116;2023-01-31T10:47:32;5.20;99.90
7574;DHT22;3828;48.922;9.116;2023-01-31T10:50:12;8.10;99.90
7574;DHT22;3828;48.922;9.116;2023-01-31T10:53:08;5.10;99.90
7574;DHT22;3828;48.922;9.116;2023-01-31T10:55:51;5.00;99.90
7574;DHT22;3828;48.922;9.116;2023-01-31T10:58:21;5.00;99.90
7574;DHT22;3828;48.922;9.116;2023-01-31T11:00:49;5.00;99.90
7574;DHT22;3828;48.922;9.116;2023-01-31T11:03:16;5.00;99.90
7574;DHT22;3828;48.922;9.116;2023-01-31T11:05:47;5.10;99.90
7574;DHT22;3828;48.922;9.116;2023-01-31T11:08:32;5.20;99.90
7574;DHT22;3828;48.922;9.116;2023-01-31T11:11:05;5.20;99.90
7574;DHT22;3828;48.922;9.116;2023-01-31T11:13:32;5.30;99.90
7574;DHT22;3828;48.922;9.116;2023-01-31T11:16:01;5.30;99.90
7574;DHT22;3828;48.922;9.116;2023-01-31T11:18:30;5.40;99.90
7574;DHT22;3828;48.922;9.116;2023-01-31T11:21:00;5.40;99.90
7574;DHT22;3828;48.922;9.116;2023-01-31T11:23:30;5.40;99.90
7574;DHT22;3828;48.922;9.116;2023-01-31T11:25:58;5.40;99.90
7574;DHT22;3828;48.922;9.116;2023-01-31T11:28:32;5.40;99.90
7574;DHT22;3828;48.922;9.116;2023-01-31T11:31:02;8.50;99.90
7574;DHT22;3828;48.922;9.116;2023-01-31T11:33:37;6.90;99.90
7574;DHT22;3828;48.922;9.116;2023-01-31T11:36:14;5.60;99.90
7574;DHT22;3828;48.922;9.116;2023-01-31T11:38:43;5.70;99.90
7574;DHT22;3828;48.922;9.116;2023-01-31T11:41:30;5.60;99.90
7574;DHT22;3828;48.922;9.116;2023-01-31T11:44:06;5.60;99.90
7574;DHT22;3828;48.922;9.116;2023-01-31T11:46:42;5.70;99.90
7574;DHT22;3828;48.922;9.116;2023-01-31T11:49:11;5.70;99.90
7574;DHT22;3828;48.922;9.116;2023-01-31T11:51:40;6.70;99.90
7574;DHT22;3828;48.922;9.116;2023-01-31T11:54:14;6.30;99.90
7574;DHT22;3828;48.922;9.116;2023-01-31T11:56:45;5.90;99.90
7574;DHT22;3828;48.922;9.116;2023-01-31T11:59:17;5.90;99.90
7574;DHT22;3828;48.922;9.116;2023-01-31T12:01:48;9.50;99.90
7574;DHT22;3828;48.922;9.116;2023-01-31T12:04:17;5.90;99.90
7574;DHT22;3828;48.922;9.116;2023-01-31T12:06:58;5.90;99.90
7574;DHT22;3828;48.922;9.116;2023-01-31T12:09:30;6.10;99.90
7574;DHT22;3828;48.922;9.116;2023-01-31T12:12:21;6.00;99.90
7574;DHT22;3828;48.922;9.116;2023-01-31T12:14:48;6.10;99.90
7574;DHT22;3828;48.922;9.116;2023-01-31T12:17:16;9.10;99.90
7574;DHT22;3828;48.922;9.116;2023-01-31T12:19:52;6.10;99.90
7574;DHT22;3828;48.922;9.116;2023-01-31T12:22:29;6.00;99.90
7574;DHT22;3828;48.922;9.116;2023-01-31T12:25:06;6.00;99.90
7574;DHT22;3828;48.922;9.116;2023-01-31T12:27:48;9.30;99.90
7574;DHT22;3828;48.922;9.116;2023-01-31T12:30:45;6.20;99.90
7574;DHT22;3828;48.922;9.116;2023-01-31T12:33:28;6.40;99.90
7574;DHT22;3828;48.922;9.116;2023-01-31T12:36:14;6.50;99.90
7574;DHT22;3828;48.922;9.116;2023-01-31T12:38:59;6.50;99.90
7574;DHT22;3828;48.922;9.116;2023-01-31T12:41:31;6.30;99.90
7574;DHT22;3828;48.922;9.116;2023-01-31T12:44:22;10.10;99.90
7574;DHT22;3828;48.922;9.116;2023-01-31T12:47:03;5.90;99.90
7574;DHT22;3828;48.922;9.116;2023-01-31T12:49:46;5.80;99.90
7574;DHT22;3828;48.922;9.116;2023-01-31T12:52:20;5.70;99.90
7574;DHT22;3828;48.922;9.116;2023-01-31T12:55:10;5.70;99.90
7574;DHT22;3828;48.922;9.116;2023-01-31T12:57:45;5.70;99.90
7574;DHT22;3828;48.922;9.116;2023-01-31T13:00:31;5.70;99.90
7574;DHT22;3828;48.922;9.116;2023-01-31T13:05:59;5.70;99.90
7574;DHT22;3828;48.922;9.116;2023-01-31T13:08:28;5.60;99.90
7574;DHT22;3828;48.922;9.116;2023-01-31T13:11:00;8.30;99.90
7574;DHT22;3828;48.922;9.116;2023-01-31T13:13:30;6.10;99.90
7574;DHT22;3828;48.922;9.116;2023-01-31T13:16:01;8.60;99.90
7574;DHT22;3828;48.922;9.116;2023-01-31T13:18:33;6.00;99.90
7574;DHT22;3828;48.922;9.116;2023-01-31T13:21:05;6.40;99.90
7574;DHT22;3828;48.922;9.116;2023-01-31T13:23:37;5.90;99.90
7574;DHT22;3828;48.922;9.116;2023-01-31T13:26:10;5.80;99.90
7574;DHT22;3828;48.922;9.116;2023-01-31T13:28:43;5.80;99.90
7574;DHT22;3828;48.922;9.116;2023-01-31T13:31:16;5.80;99.90
7574;DHT22;3828;48.922;9.116;2023-01-31T13:33:48;7.70;99.90
7574;DHT22;3828;48.922;9.116;2023-01-31T13:36:22;7.00;99.90
7574;DHT22;3828;48.922;9.116;2023-01-31T13:38:51;7.50;99.90
7574;DHT22;3828;48.922;9.116;2023-01-31T13:41:25;5.70;99.90
7574;DHT22;3828;48.922;9.116;2023-01-31T13:43:53;5.70;99.90
7574;DHT22;3828;48.922;9.116;2023-01-31T13:46:23;5.70;99.90
7574;DHT22;3828;48.922;9.116;2023-01-31T13:48:56;9.10;99.90
7574;DHT22;3828;48.922;9.116;2023-01-31T13:51:29;5.70;99.90
7574;DHT22;3828;48.922;9.116;2023-01-31T13:54:04;5.70;99.90
7574;DHT22;3828;48.922;9.116;2023-01-31T13:56:35;5.70;99.90
7574;DHT22;3828;48.922;9.116;2023-01-31T13:59:06;5.70;99.90
7574;DHT22;3828;48.922;9.116;2023-01-31T14:01:40;9.20;99.90
7574;DHT22;3828;48.922;9.116;2023-01-31T14:04:27;6.60;99.90
7574;DHT22;3828;48.922;9.116;2023-01-31T14:09:38;5.80;99.90
7574;DHT22;3828;48.922;9.116;2023-01-31T14:12:34;5.80;99.90
7574;DHT22;3828;48.922;9.116;2023-01-31T14:15:01;5.80;99.90
7574;DHT22;3828;48.922;9.116;2023-01-31T14:17:57;5.90;99.90
7574;DHT22;3828;48.922;9.116;2023-01-31T14:20:27;5.90;99.90
7574;DHT22;3828;48.922;9.116;2023-01-31T14:23:30;6.00;99.90
7574;DHT22;3828;48.922;9.116;2023-01-31T14:25:57;6.00;99.90
7574;DHT22;3828;48.922;9.116;2023-01-31T14:28:26;6.00;99.90
7574;DHT22;3828;48.922;9.116;2023-01-31T14:30:54;6.60;99.90
7574;DHT22;3828;48.922;9.116;2023-01-31T14:33:32;6.10;99.90
7574;DHT22;3828;48.922;9.116;2023-01-31T14:36:12;6.00;99.90
7574;DHT22;3828;48.922;9.116;2023-01-31T14:41:49;6.00;99.90
7574;DHT22;3828;48.922;9.116;2023-01-31T14:44:31;5.90;99.90
7574;DHT22;3828;48.922;9.116;2023-01-31T14:47:16;8.10;99.90
7574;DHT22;3828;48.922;9.116;2023-01-31T14:50:19;5.80;99.90
7574;DHT22;3828;48.922;9.116;2023-01-31T14:53:13;5.70;99.90
7574;DHT22;3828;48.922;9.116;2023-01-31T14:56:02;5.70;99.90
7574;DHT22;3828;48.922;9.116;2023-01-31T14:58:32;5.80;99.90
7574;DHT22;3828;48.922;9.116;2023-01-31T15:01:04;5.80;99.90
7574;DHT22;3828;48.922;9.116;2023-01-31T15:03:38;6.00;99.90
7574;DHT22;3828;48.922;9.116;2023-01-31T15:06:16;5.80;99.90
7574;DHT22;3828;48.922;9.116;2023-01-31T15:08:48;5.80;99.90
7574;DHT22;3828;48.922;9.116;2023-01-31T15:11:40;6.90;99.90
7574;DHT22;3828;48.922;9.116;2023-01-31T15:14:28;5.70;99.90
7574;DHT22;3828;48.922;9.116;2023-01-31T15:16:59;6.60;99.90
7574;DHT22;3828;48.922;9.116;2023-01-31T15:19:29;5.70;99.90
7574;DHT22;3828;48.922;9.116;2023-01-31T15:22:07;5.70;99.90
7574;DHT22;3828;48.922;9.116;2023-01-31T15:24:38;7.40;99.90
7574;DHT22;3828;48.922;9.116;2023-01-31T15:27:10;5.70;99.90
7574;DHT22;3828;48.922;9.116;2023-01-31T15:29:49;5.90;99.90
7574;DHT22;3828;48.922;9.116;2023-01-31T15:32:21;5.90;99.90
7574;DHT22;3828;48.922;9.116;2023-01-31T15:34:58;5.70;99.90
7574;DHT22;3828;48.922;9.116;2023-01-31T15:37:30;5.70;99.90
7574;DHT22;3828;48.922;9.116;2023-01-31T15:40:02;5.70;99.90
7574;DHT22;3828;48.922;9.116;2023-01-31T15:42:31;5.70;99.90
7574;DHT22;3828;48.922;9.116;2023-01-31T15:45:19;5.70;99.90
7574;DHT22;3828;48.922;9.116;2023-01-31T15:47:58;5.70;99.90
7574;DHT22;3828;48.922;9.116;2023-01-31T15:50:29;5.70;99.90
7574;DHT22;3828;48.922;9.116;2023-01-31T15:53:00;9.20;99.90
7574;DHT22;3828;48.922;9.116;2023-01-31T15:55:27;7.10;99.90
7574;DHT22;3828;48.922;9.116;2023-01-31T15:57:56;5.50;99.90
7574;DHT22;3828;48.922;9.116;2023-01-31T16:00:26;7.90;99.90
7574;DHT22;3828;48.922;9.116;2023-01-31T16:02:56;5.40;99.90
7574;DHT22;3828;48.922;9.116;2023-01-31T16:05:31;5.40;99.90
7574;DHT22;3828;48.922;9.116;2023-01-31T16:08:00;5.40;99.90
7574;DHT22;3828;48.922;9.116;2023-01-31T16:10:29;5.50;99.90
7574;DHT22;3828;48.922;9.116;2023-01-31T16:12:57;5.50;99.90
7574;DHT22;3828;48.922;9.116;2023-01-31T16:15:27;5.50;99.90
7574;DHT22;3828;48.922;9.116;2023-01-31T16:17:59;5.50;99.90
7574;DHT22;3828;48.922;9.116;2023-01-31T16:20:39;7.90;99.90
7574;DHT22;3828;48.922;9.116;2023-01-31T16:23:25;5.50;99.90
7574;DHT22;3828;48.922;9.116;2023-01-31T16:25:57;5.50;99.90
7574;DHT22;3828;48.922;9.116;2023-01-31T16:28:27;5.60;99.90
7574;DHT22;3828;48.922;9.116;2023-01-31T16:31:07;6.80;99.90
7574;DHT22;3828;48.922;9.116;2023-01-31T16:33:37;7.00;99.90
7574;DHT22;3828;48.922;9.116;2023-01-31T16:36:10;5.50;99.90
7574;DHT22;3828;48.922;9.116;2023-01-31T16:38:39;5.60;99.90
7574;DHT22;3828;48.922;9.116;2023-01-31T16:41:08;5.50;99.90
7574;DHT22;3828;48.922;9.116;2023-01-31T16:43:40;5.50;99.90
7574;DHT22;3828;48.922;9.116;2023-01-31T16:46:20;5.40;99.90
7574;DHT22;3828;48.922;9.116;2023-01-31T16:49:02;5.50;99.90
7574;DHT22;3828;48.922;9.116;2023-01-31T16:51:48;9.70;99.90
7574;DHT22;3828;48.922;9.116;2023-01-31T16:54:18;5.60;99.90
7574;DHT22;3828;48.922;9.116;2023-01-31T16:56:54;8.40;99.90